Islamorada, FL

7:26 PM EDT on October 24, 2014 (GMT -0400)
Brown and Crebbin Design Studio | Change Station
CLOSE
Current Station
Personal Weather Station
Location: Plantation Key, FL
Elevation: 9 ft
Nearby Weather Stations

Elev 9 ft 25.00 °N, 80.54 °W | Updated 7 seconds ago

Mostly Cloudy
Mostly Cloudy
75.9 °F
Feels Like 75 °F
N
8.0
Wind Variable Wind from NW
Gusts 9.0 mph

Today
High -- | Low -- °F
--% Chance of Precip.
Yesterday
High -- | Low -- °F
Precip. -- in
7:25 AM 6:47 PM
New Moon, 1% visible
Pressure 29.81 in
Visibility 10.0 miles
Clouds Few 600 ft
Scattered Clouds 2300 ft
Heat Index 75 °F
Dew Point 75 °F
Humidity 97%
Rainfall 1.54 in
Snow Depth Not available.
UV 0 out of 12
Pollen .40 out of 12
Air Quality Not available.
Flu Activity Local Activity
SPECI KHST 242300Z AUTO 34007KT 10SM -RA FEW006 SCT023 24/22 A2981 RMK AO2 RAE2258

More Conditions Fewer Conditions

Pressure 29.81 in
Visibility 10.0 miles
Clouds Few 600 ft
Scattered Clouds 2300 ft
Heat Index 75 °F
Dew Point 75 °F
Humidity 97%
Rainfall 1.54 in
Snow Depth Not available.
UV 0 out of 12
Pollen .40 out of 12
Air Quality Not available.
Flu Activity Local Activity
SPECI KHST 242300Z AUTO 34007KT 10SM -RA FEW006 SCT023 24/22 A2981 RMK AO2 RAE2258

More Conditions Fewer Conditions

10-Day Weather Forecast

Almanac

Astronomy

Oct. 24, 2014 Rise Set
Actual Time 7:25 AM EDT 6:47 PM EDT
Civil Twilight 7:01 AM EDT 7:11 PM EDT
Nautical Twilight 6:35 AM EDT 7:37 PM EDT
Astronomical Twilight 6:08 AM EDT 8:04 PM EDT
Moon 7:59 AM EDT 7:31 PM EDT
Length of Visible Light 12h 09m
Length of Day
11h 22m
Tomorrow will be 1m 20s shorter.
New Moon, 1% of the Moon is Illuminated
Today
New Moon
Oct 30
First Quarter
Nov 6
Full
Nov 14
Last Quarter
Nov 22
New

Today's Extremes

State Highs State Lows

Community

WunderPhotos

Upload Photos

1,764,710 photos uploaded!

Nearby

Snow Depth

Station Depth Elevation
No new snow has been reported.

Earthquake Activity

City Distance Mag. Time & Date
No recent earthquake activity has been reported nearby.
Minimum magnitude displayed is 2.5.

Coastal Water Temperatures

Place Temperature
No Stations Reporting

Nearby Weather Stations